createdAt,value
2018-05-12T00:00:08.773Z,15.10
2018-05-12T00:02:36.991Z,15.10
2018-05-12T00:05:05.351Z,15.10
2018-05-12T00:07:34.792Z,15.20
2018-05-12T00:10:03.328Z,15.20
2018-05-12T00:12:32.765Z,15.00
2018-05-12T00:15:01.035Z,15.00
2018-05-12T00:17:29.610Z,14.90
2018-05-12T00:19:58.697Z,15.00
2018-05-12T00:22:28.228Z,14.90
2018-05-12T00:24:59.814Z,14.90
2018-05-12T00:27:28.213Z,14.80
2018-05-12T00:29:56.626Z,14.70
2018-05-12T00:32:26.048Z,14.80
2018-05-12T00:34:55.104Z,14.80
2018-05-12T00:37:24.020Z,14.80
2018-05-12T00:39:54.719Z,14.80
2018-05-12T00:42:23.221Z,14.80
2018-05-12T00:44:52.204Z,14.60
2018-05-12T00:47:20.999Z,14.70
2018-05-12T00:49:50.592Z,14.60
2018-05-12T00:52:19.566Z,14.60
2018-05-12T00:54:47.788Z,14.60
2018-05-12T00:57:16.111Z,14.60
2018-05-12T00:59:44.328Z,14.50
2018-05-12T01:02:12.568Z,14.40
2018-05-12T01:04:40.875Z,14.40
2018-05-12T01:07:09.767Z,14.40
2018-05-12T01:09:38.643Z,14.40
2018-05-12T01:12:07.228Z,14.20
2018-05-12T01:14:35.936Z,14.20
2018-05-12T01:17:04.374Z,14.20
2018-05-12T01:19:32.874Z,14.10
2018-05-12T01:22:02.028Z,14.10
2018-05-12T01:24:31.521Z,14.00
2018-05-12T01:27:01.013Z,13.90
2018-05-12T01:29:29.424Z,13.90
2018-05-12T01:31:57.643Z,13.90
2018-05-12T01:34:27.218Z,13.90
2018-05-12T01:36:55.975Z,13.80
2018-05-12T01:39:24.183Z,13.80
2018-05-12T01:41:53.248Z,13.70
2018-05-12T01:44:22.228Z,13.60
2018-05-12T01:46:51.857Z,13.60
2018-05-12T01:49:21.328Z,13.50
2018-05-12T01:51:50.030Z,13.50
2018-05-12T01:54:19.348Z,13.50
2018-05-12T01:56:48.328Z,13.40
2018-05-12T01:59:16.852Z,13.40
2018-05-12T02:01:45.209Z,13.40
2018-05-12T02:04:14.396Z,13.40
2018-05-12T02:06:43.096Z,13.40
2018-05-12T02:09:11.659Z,13.40
2018-05-12T02:11:41.388Z,13.40
2018-05-12T02:14:11.300Z,13.50
2018-05-12T02:16:40.280Z,13.50
2018-05-12T02:19:08.492Z,13.50
2018-05-12T02:21:37.281Z,13.40
2018-05-12T02:24:05.494Z,13.40
2018-05-12T02:26:34.380Z,13.40
2018-05-12T02:29:02.592Z,13.30
2018-05-12T02:31:31.012Z,13.30
2018-05-12T02:33:59.264Z,13.30
2018-05-12T02:36:27.999Z,13.20
2018-05-12T02:38:56.208Z,13.20
2018-05-12T02:41:25.932Z,13.10
2018-05-12T02:43:55.732Z,13.10
2018-05-12T02:46:24.128Z,13.10
2018-05-12T02:48:53.640Z,13.00
2018-05-12T02:51:22.616Z,13.00
2018-05-12T02:53:51.593Z,12.90
2018-05-12T02:56:20.937Z,12.90
2018-05-12T02:58:49.162Z,12.90
2018-05-12T03:01:18.042Z,12.90
2018-05-12T03:03:46.581Z,12.80
2018-05-12T03:06:14.800Z,12.70
2018-05-12T03:08:56.329Z,12.60
2018-05-12T03:11:25.697Z,12.60
2018-05-12T03:13:54.057Z,12.60
2018-05-12T03:16:22.400Z,12.60
2018-05-12T03:18:51.385Z,12.50
2018-05-12T03:21:19.703Z,12.50
2018-05-12T03:23:47.920Z,12.50
2018-05-12T03:26:16.495Z,12.40
2018-05-12T03:28:45.297Z,12.40
2018-05-12T03:31:14.424Z,12.40
2018-05-12T03:33:43.007Z,12.30
2018-05-12T03:36:13.132Z,12.30
2018-05-12T03:38:41.348Z,12.30
2018-05-12T03:41:10.288Z,12.20
2018-05-12T03:43:39.265Z,12.30
2018-05-12T03:46:08.172Z,12.20
2018-05-12T03:48:37.446Z,12.30
2018-05-12T03:51:06.272Z,12.20
2018-05-12T03:53:35.555Z,12.30
2018-05-12T03:56:04.253Z,12.20
2018-05-12T03:58:33.239Z,12.10
2018-05-12T04:01:02.047Z,12.10
2018-05-12T04:03:30.291Z,12.10
2018-05-12T04:06:10.257Z,12.10
2018-05-12T04:08:58.521Z,12.10
2018-05-12T04:25:01.297Z,12.20
2018-05-12T04:27:31.220Z,12.20
2018-05-12T04:29:59.432Z,12.30
2018-05-12T04:32:28.339Z,12.30
2018-05-12T04:34:56.555Z,12.20
2018-05-12T04:37:25.332Z,12.20
2018-05-12T04:40:02.836Z,12.20
2018-05-12T04:42:33.241Z,12.20
2018-05-12T04:45:01.457Z,12.20
2018-05-12T04:47:29.715Z,12.30
2018-05-12T04:49:58.814Z,12.40
2018-05-12T04:52:28.296Z,12.50
2018-05-12T04:54:56.524Z,12.50
2018-05-12T04:57:24.740Z,12.50
2018-05-12T04:59:53.248Z,12.60
2018-05-12T05:02:22.729Z,12.70
2018-05-12T05:04:51.240Z,12.70
2018-05-12T05:07:20.219Z,12.70
2018-05-12T05:09:49.168Z,12.70
2018-05-12T05:12:17.629Z,12.70
2018-05-12T05:14:46.607Z,12.80
2018-05-12T05:17:14.951Z,12.90
2018-05-12T05:19:43.745Z,13.10
2018-05-12T05:22:12.916Z,13.10
2018-05-12T05:24:41.333Z,13.20
2018-05-12T05:27:10.251Z,13.30
2018-05-12T05:29:38.520Z,13.40
2018-05-12T05:32:08.390Z,13.40
2018-05-12T05:34:36.599Z,13.30
2018-05-12T05:37:06.017Z,13.40
2018-05-12T05:39:34.235Z,13.60
2018-05-12T05:42:03.190Z,13.60
2018-05-12T05:44:31.397Z,13.60
2018-05-12T05:47:00.087Z,13.70
2018-05-12T05:49:28.697Z,13.80
2018-05-12T05:51:56.912Z,13.90
2018-05-12T05:54:26.204Z,14.20
2018-05-12T05:56:55.855Z,14.20
2018-05-12T05:59:24.592Z,14.20
2018-05-12T06:01:53.280Z,14.30
2018-05-12T06:04:22.256Z,14.40
2018-05-12T06:06:50.494Z,14.30
2018-05-12T06:09:19.591Z,14.40
2018-05-12T06:11:48.293Z,14.50
2018-05-12T06:14:16.626Z,14.60
2018-05-12T06:16:44.830Z,14.80
2018-05-12T06:19:13.041Z,14.90
2018-05-12T06:21:41.562Z,15.10
2018-05-12T06:24:11.482Z,15.60
2018-05-12T06:26:39.789Z,15.60
2018-05-12T06:29:07.999Z,15.80
2018-05-12T06:31:36.211Z,15.80
2018-05-12T06:34:04.818Z,15.90
2018-05-12T06:36:33.760Z,16.30
2018-05-12T06:39:01.973Z,16.20
2018-05-12T06:41:32.277Z,16.50
2018-05-12T06:44:01.320Z,16.70
2018-05-12T06:46:29.536Z,16.70
2018-05-12T06:48:58.926Z,16.80
2018-05-12T06:51:27.173Z,17.00
2018-05-12T06:53:56.132Z,17.10
2018-05-12T06:56:25.217Z,17.20
2018-05-12T06:58:54.186Z,17.50
2018-05-12T07:01:23.719Z,17.50
2018-05-12T07:03:52.927Z,17.70
2018-05-12T07:06:21.144Z,17.70
2018-05-12T07:08:49.621Z,17.80
2018-05-12T07:11:18.540Z,17.70
2018-05-12T07:13:46.932Z,17.80
2018-05-12T07:16:15.911Z,18.00
2018-05-12T07:18:44.116Z,18.00
2018-05-12T07:21:13.528Z,18.10
2018-05-12T07:23:42.397Z,18.40
2018-05-12T07:26:11.503Z,18.80
2018-05-12T07:28:40.778Z,19.00
2018-05-12T07:31:09.078Z,19.00
2018-05-12T07:33:38.328Z,19.20
2018-05-12T07:36:06.544Z,19.20
2018-05-12T07:38:34.956Z,19.50
2018-05-12T07:41:04.164Z,19.50
2018-05-12T07:43:33.307Z,19.60
2018-05-12T07:46:02.335Z,19.70
2018-05-12T07:48:30.769Z,19.90
2018-05-12T07:51:06.963Z,19.90
2018-05-12T07:53:37.180Z,20.10
2018-05-12T07:56:06.336Z,20.20
2018-05-12T07:58:34.744Z,20.40
2018-05-12T08:01:03.069Z,20.70
2018-05-12T08:03:31.546Z,21.00
2018-05-12T08:06:01.712Z,21.30
2018-05-12T08:08:30.396Z,21.30
2018-05-12T08:10:59.452Z,21.40
2018-05-12T08:13:28.310Z,21.50
2018-05-12T08:15:56.612Z,21.60
2018-05-12T08:18:25.923Z,22.00
2018-05-12T08:20:54.258Z,21.90
2018-05-12T08:23:22.677Z,22.00
2018-05-12T08:25:52.088Z,22.50
2018-05-12T08:28:20.296Z,22.40
2018-05-12T08:30:48.504Z,22.50
2018-05-12T08:33:17.016Z,22.60
2018-05-12T08:35:45.987Z,22.80
2018-05-12T08:38:14.667Z,22.80
2018-05-12T08:40:43.753Z,22.90
2018-05-12T08:43:11.927Z,23.20
2018-05-12T08:45:40.136Z,23.40
2018-05-12T08:48:08.552Z,23.50
2018-05-12T08:50:37.296Z,23.40
2018-05-12T08:53:05.717Z,23.30
2018-05-12T08:55:33.932Z,23.50
2018-05-12T08:58:02.907Z,23.60
2018-05-12T09:00:31.520Z,23.50
2018-05-12T09:02:59.730Z,23.30
2018-05-12T09:05:28.599Z,23.20
2018-05-12T09:07:57.573Z,23.30
2018-05-12T09:10:26.050Z,23.30
2018-05-12T09:12:54.892Z,23.60
2018-05-12T09:15:23.100Z,23.90
2018-05-12T09:17:51.312Z,24.00
2018-05-12T09:20:20.680Z,23.80
2018-05-12T09:22:48.900Z,23.90
2018-05-12T09:25:17.651Z,24.10
2018-05-12T09:27:45.917Z,23.80
2018-05-12T09:30:14.899Z,23.70
2018-05-12T09:32:43.404Z,23.70
2018-05-12T09:35:11.617Z,23.60
2018-05-12T09:37:41.197Z,23.50
2018-05-12T09:40:12.994Z,23.40
2018-05-12T09:42:41.963Z,23.60
2018-05-12T09:45:10.191Z,23.50
2018-05-12T09:47:39.305Z,23.50
2018-05-12T09:50:08.833Z,23.00
2018-05-12T09:52:37.169Z,23.00
2018-05-12T09:55:05.377Z,22.80
2018-05-12T09:57:33.597Z,23.00
2018-05-12T10:00:02.042Z,23.20
2018-05-12T10:02:30.228Z,23.20
2018-05-12T10:04:58.546Z,23.10
2018-05-12T10:07:27.232Z,23.10
2018-05-12T10:09:55.640Z,23.40
2018-05-12T10:12:24.247Z,23.50
2018-05-12T10:14:52.840Z,23.40
2018-05-12T10:17:21.056Z,23.20
2018-05-12T10:19:49.273Z,23.40
2018-05-12T10:22:18.150Z,23.50
2018-05-12T10:24:53.856Z,23.20
2018-05-12T10:27:23.170Z,23.50
2018-05-12T10:29:52.138Z,23.60
2018-05-12T10:32:20.720Z,23.50
2018-05-12T10:34:49.197Z,23.70
2018-05-12T10:37:17.413Z,23.70
2018-05-12T10:39:45.620Z,23.80
2018-05-12T10:42:14.152Z,23.80
2018-05-12T10:44:43.545Z,23.70
2018-05-12T10:47:12.348Z,23.70
2018-05-12T10:49:41.327Z,23.70
2018-05-12T10:52:09.904Z,23.70
2018-05-12T10:54:38.116Z,23.80
2018-05-12T10:57:06.701Z,23.80
2018-05-12T10:59:34.928Z,23.80
2018-05-12T11:02:03.180Z,23.70
2018-05-12T11:04:31.967Z,23.70
2018-05-12T11:07:00.199Z,23.70
2018-05-12T11:09:28.980Z,23.80
2018-05-12T11:11:58.640Z,23.90
2018-05-12T11:14:27.093Z,23.90
2018-05-12T11:16:55.292Z,23.90
2018-05-12T11:19:24.262Z,24.10
2018-05-12T11:21:52.957Z,24.10
2018-05-12T11:24:21.740Z,24.10
2018-05-12T11:26:51.037Z,24.30
2018-05-12T11:29:20.061Z,24.40
2018-05-12T11:31:48.268Z,24.40
2018-05-12T11:34:17.203Z,24.40
2018-05-12T11:36:46.187Z,24.40
2018-05-12T11:39:14.401Z,24.40
2018-05-12T11:41:42.717Z,24.40
2018-05-12T11:44:10.920Z,24.20
2018-05-12T11:46:39.905Z,24.20
2018-05-12T11:49:09.829Z,24.40
2018-05-12T11:51:38.792Z,24.40
2018-05-12T11:54:07.101Z,24.40
2018-05-12T11:56:35.670Z,24.50
2018-05-12T11:59:03.870Z,24.60
2018-05-12T12:01:32.108Z,24.50
2018-05-12T12:04:00.328Z,24.30
2018-05-12T12:06:29.556Z,24.20
2018-05-12T12:08:58.396Z,24.20
2018-05-12T12:11:26.982Z,24.20
2018-05-12T12:13:56.184Z,24.40
2018-05-12T12:16:24.846Z,24.40
2018-05-12T12:18:53.039Z,24.40
2018-05-12T12:21:21.610Z,24.50
2018-05-12T12:23:49.856Z,24.70
2018-05-12T12:26:18.328Z,24.80
2018-05-12T12:28:46.533Z,24.80
2018-05-12T12:31:14.884Z,24.80
2018-05-12T12:33:43.173Z,24.80
2018-05-12T12:36:11.416Z,24.80
2018-05-12T12:38:39.617Z,24.80
2018-05-12T12:41:08.120Z,24.80
2018-05-12T12:43:36.337Z,24.80
2018-05-12T12:46:05.363Z,25.00
2018-05-12T12:48:33.885Z,25.00
2018-05-12T12:51:02.088Z,25.00
2018-05-12T12:53:31.676Z,25.00
2018-05-12T12:55:59.875Z,25.00
2018-05-12T12:58:29.510Z,25.20
2018-05-12T13:00:57.776Z,25.30
2018-05-12T13:03:27.275Z,25.30
2018-05-12T13:05:56.178Z,25.30
2018-05-12T13:08:24.386Z,25.20
2018-05-12T13:10:52.908Z,25.00
2018-05-12T13:13:22.215Z,24.70
2018-05-12T13:15:51.194Z,24.60
2018-05-12T13:18:19.795Z,24.60
2018-05-12T13:20:49.095Z,24.60
2018-05-12T13:23:18.064Z,24.50
2018-05-12T13:25:52.554Z,24.40
2018-05-12T13:28:20.759Z,24.40
2018-05-12T13:30:48.963Z,24.50
2018-05-12T13:33:18.024Z,24.80
2018-05-12T13:35:46.226Z,24.70
2018-05-12T13:38:15.635Z,25.00
2018-05-12T13:40:44.701Z,25.10
2018-05-12T13:43:12.900Z,25.10
2018-05-12T13:45:41.185Z,25.00
2018-05-12T13:48:09.336Z,25.10
2018-05-12T13:50:37.538Z,25.00
2018-05-12T13:53:05.816Z,25.10
2018-05-12T13:55:34.014Z,25.20
2018-05-12T13:58:02.605Z,25.30
2018-05-12T14:00:30.820Z,25.40
2018-05-12T14:02:59.025Z,25.50
2018-05-12T14:05:28.184Z,25.40
2018-05-12T14:07:57.155Z,25.20
2018-05-12T14:10:26.198Z,25.20
2018-05-12T14:12:55.708Z,25.20
2018-05-12T14:15:24.676Z,25.10
2018-05-12T14:17:52.876Z,25.10
2018-05-12T14:20:22.544Z,25.00
2018-05-12T14:22:50.744Z,25.00
2018-05-12T14:25:27.340Z,25.40
2018-05-12T14:27:56.820Z,25.40
2018-05-12T14:30:25.296Z,25.40
2018-05-12T14:32:53.819Z,25.60
2018-05-12T14:35:22.202Z,25.50
2018-05-12T14:37:50.417Z,25.40
2018-05-12T14:40:26.587Z,25.30
2018-05-12T14:42:54.810Z,25.20
2018-05-12T14:45:23.783Z,25.40
2018-05-12T14:47:51.992Z,25.40
2018-05-12T14:50:20.193Z,25.60
2018-05-12T14:52:49.165Z,26.00
2018-05-12T14:55:18.357Z,26.00
2018-05-12T14:57:46.556Z,26.10
2018-05-12T15:00:14.769Z,26.00
2018-05-12T15:02:43.005Z,26.10
2018-05-12T15:05:11.652Z,26.00
2018-05-12T15:07:40.625Z,26.10
2018-05-12T15:10:09.424Z,26.10
2018-05-12T15:12:44.937Z,26.20
2018-05-12T15:15:13.135Z,26.20
2018-05-12T15:17:41.342Z,26.10
2018-05-12T15:20:16.321Z,26.10
2018-05-12T15:22:44.521Z,26.10
2018-05-12T15:25:12.725Z,26.00
2018-05-12T15:27:41.292Z,26.00
2018-05-12T15:30:09.995Z,25.90
2018-05-12T15:32:39.276Z,25.70
2018-05-12T15:35:07.480Z,25.60
2018-05-12T15:37:35.688Z,25.70
2018-05-12T15:40:03.907Z,25.70
2018-05-12T15:42:32.394Z,25.70
2018-05-12T15:45:01.366Z,25.30
2018-05-12T15:47:29.564Z,25.30
2018-05-12T15:49:58.677Z,24.80
2018-05-12T15:52:26.860Z,24.80
2018-05-12T15:54:55.064Z,24.40
2018-05-12T15:57:24.019Z,24.10
2018-05-12T15:59:54.165Z,23.80
2018-05-12T16:02:22.372Z,23.70
2018-05-12T16:04:50.857Z,23.50
2018-05-12T16:07:19.059Z,23.30
2018-05-12T16:09:48.399Z,23.10
2018-05-12T16:12:17.782Z,23.10
2018-05-12T16:14:47.202Z,23.00
2018-05-12T16:17:16.449Z,23.00
2018-05-12T16:19:44.648Z,23.00
2018-05-12T16:22:13.976Z,23.10
2018-05-12T16:24:42.177Z,23.00
2018-05-12T16:27:10.435Z,23.10
2018-05-12T16:29:39.088Z,23.20
2018-05-12T16:32:08.720Z,23.10
2018-05-12T16:34:36.919Z,23.10
2018-05-12T16:37:05.121Z,23.10
2018-05-12T16:39:34.252Z,23.00
2018-05-12T16:42:03.532Z,22.80
2018-05-12T16:44:33.241Z,22.80
2018-05-12T16:47:01.740Z,22.80
2018-05-12T16:49:30.719Z,22.70
2018-05-12T16:51:58.930Z,22.60
2018-05-12T16:54:27.136Z,22.60
2018-05-12T16:56:55.365Z,22.50
2018-05-12T16:59:23.576Z,22.40
2018-05-12T17:01:52.933Z,22.40
2018-05-12T17:04:21.544Z,22.40
2018-05-12T17:06:49.767Z,22.40
2018-05-12T17:09:18.725Z,22.40
2018-05-12T17:11:47.366Z,22.40
2018-05-12T17:14:15.697Z,22.40
2018-05-12T17:16:44.386Z,22.40
2018-05-12T17:19:12.601Z,22.40
2018-05-12T17:21:41.250Z,22.40
2018-05-12T17:24:09.521Z,22.40
2018-05-12T17:26:37.776Z,22.40
2018-05-12T17:29:06.119Z,22.30
2018-05-12T17:31:34.756Z,22.40
2018-05-12T17:34:03.609Z,22.40
2018-05-12T17:36:31.808Z,22.40
2018-05-12T17:39:00.004Z,22.40
2018-05-12T17:41:28.848Z,22.40
2018-05-12T17:43:57.061Z,22.40
2018-05-12T17:46:25.354Z,22.40
2018-05-12T17:48:53.582Z,22.40
2018-05-12T17:51:22.585Z,22.30
2018-05-12T17:53:51.252Z,22.40
2018-05-12T17:56:19.452Z,22.40
2018-05-12T17:58:47.653Z,22.30
2018-05-12T18:01:16.283Z,22.30
2018-05-12T18:03:44.508Z,22.20
2018-05-12T18:06:13.131Z,22.20
2018-05-12T18:08:41.343Z,22.10
2018-05-12T18:11:10.393Z,22.00
2018-05-12T18:13:39.169Z,22.00
2018-05-12T18:16:07.729Z,22.00
2018-05-12T18:18:41.364Z,21.90
2018-05-12T18:21:10.004Z,21.90
2018-05-12T18:23:38.976Z,21.80
2018-05-12T18:26:07.674Z,21.70
2018-05-12T18:28:36.644Z,21.60
2018-05-12T18:31:04.856Z,21.60
2018-05-12T18:33:33.610Z,21.50
2018-05-12T18:36:01.814Z,21.50
2018-05-12T18:38:30.124Z,21.40
2018-05-12T18:40:58.822Z,21.30
2018-05-12T18:43:27.096Z,21.20
2018-05-12T18:45:55.305Z,21.20
2018-05-12T18:48:23.516Z,21.10
2018-05-12T18:50:51.712Z,21.00
2018-05-12T18:53:19.912Z,21.00
2018-05-12T18:55:48.906Z,20.90
2018-05-12T18:58:17.190Z,20.80
2018-05-12T19:00:46.815Z,20.80
2018-05-12T19:03:15.391Z,20.80
2018-05-12T19:05:44.204Z,20.70
2018-05-12T19:08:12.403Z,20.60
2018-05-12T19:10:46.716Z,20.60
2018-05-12T19:13:15.040Z,20.60
2018-05-12T19:15:43.239Z,20.60
2018-05-12T19:18:11.503Z,20.60
2018-05-12T19:20:39.943Z,20.60
2018-05-12T19:23:08.569Z,20.50
2018-05-12T19:25:36.768Z,20.40
2018-05-12T19:28:05.036Z,20.40
2018-05-12T19:30:33.227Z,20.30
2018-05-12T19:33:02.464Z,20.20
2018-05-12T19:35:30.664Z,20.20
2018-05-12T19:37:58.864Z,20.20
2018-05-12T19:40:35.048Z,20.10
2018-05-12T19:43:04.692Z,20.00
2018-05-12T19:45:33.412Z,20.00
2018-05-12T19:48:01.615Z,20.00
2018-05-12T19:50:30.834Z,19.90
2018-05-12T19:52:59.023Z,19.90
2018-05-12T19:55:27.220Z,19.90
2018-05-12T19:57:55.448Z,19.90
2018-05-12T20:00:24.236Z,19.90
2018-05-12T20:02:53.202Z,19.80
2018-05-12T20:05:21.845Z,19.80
2018-05-12T20:07:50.044Z,19.80
2018-05-12T20:10:18.527Z,19.70
2018-05-12T20:12:46.955Z,19.70
2018-05-12T20:15:15.741Z,19.60
2018-05-12T20:17:44.496Z,19.60
2018-05-12T20:20:21.636Z,19.50
2018-05-12T20:22:49.840Z,19.50
2018-05-12T20:25:18.443Z,19.50
2018-05-12T20:27:46.844Z,19.50
2018-05-12T20:30:15.041Z,19.50
2018-05-12T20:32:44.716Z,19.50
2018-05-12T20:35:13.519Z,19.50
2018-05-12T20:37:41.712Z,19.50
2018-05-12T20:40:09.918Z,19.50
2018-05-12T20:42:38.381Z,19.50
2018-05-12T20:45:06.585Z,19.50
2018-05-12T20:47:34.780Z,19.40
2018-05-12T20:50:03.284Z,19.40
2018-05-12T20:52:31.484Z,19.40
2018-05-12T20:54:59.688Z,19.40
2018-05-12T20:57:27.980Z,19.40
2018-05-12T20:59:57.004Z,19.40
2018-05-12T21:02:25.196Z,19.40
2018-05-12T21:04:53.971Z,19.40
2018-05-12T21:07:22.160Z,19.40
2018-05-12T21:09:51.878Z,19.30
2018-05-12T21:12:20.888Z,19.30
2018-05-12T21:14:49.160Z,19.30
2018-05-12T21:17:17.363Z,19.30
2018-05-12T21:19:45.780Z,19.30
2018-05-12T21:22:14.436Z,19.30
2018-05-12T21:24:43.404Z,19.30
2018-05-12T21:27:12.033Z,19.20
2018-05-12T21:29:40.232Z,19.20
2018-05-12T21:32:09.520Z,19.20
2018-05-12T21:34:37.720Z,19.20
2018-05-12T21:37:06.748Z,19.10
2018-05-12T21:39:35.036Z,19.10
2018-05-12T21:42:04.196Z,19.20
2018-05-12T21:44:32.400Z,19.10
2018-05-12T21:47:00.601Z,19.10
2018-05-12T21:49:28.825Z,19.10
2018-05-12T21:51:57.479Z,19.00
2018-05-12T21:54:25.676Z,19.00
2018-05-12T21:56:53.877Z,19.00
2018-05-12T21:59:22.090Z,18.90
2018-05-12T22:01:50.516Z,18.90
2018-05-12T22:04:18.720Z,18.80
2018-05-12T22:06:47.195Z,18.80
2018-05-12T22:09:15.744Z,18.80
2018-05-12T22:11:44.038Z,18.70
2018-05-12T22:14:12.299Z,18.70
2018-05-12T22:16:41.579Z,18.60
2018-05-12T22:19:10.089Z,18.60
2018-05-12T22:21:39.132Z,18.60
2018-05-12T22:24:07.329Z,18.50
2018-05-12T22:26:36.338Z,18.50
2018-05-12T22:29:04.528Z,18.50
2018-05-12T22:31:33.495Z,18.40
2018-05-12T22:34:02.305Z,18.40
2018-05-12T22:36:31.276Z,18.40
2018-05-12T22:39:00.268Z,18.40
2018-05-12T22:41:28.656Z,18.40
2018-05-12T22:43:56.857Z,18.40
2018-05-12T22:46:25.070Z,18.30
2018-05-12T22:48:53.299Z,18.30
2018-05-12T22:51:23.186Z,18.20
2018-05-12T22:53:52.320Z,18.20
2018-05-12T22:56:22.431Z,18.10
2018-05-12T22:58:51.412Z,18.10
2018-05-12T23:01:20.632Z,18.10
2018-05-12T23:03:49.612Z,18.00
2018-05-12T23:06:18.593Z,18.00
2018-05-12T23:08:48.516Z,18.00
2018-05-12T23:11:17.176Z,18.00
2018-05-12T23:13:45.778Z,17.90
2018-05-12T23:16:15.485Z,17.80
2018-05-12T23:18:44.916Z,17.80
2018-05-12T23:21:14.000Z,17.80
2018-05-12T23:23:42.201Z,17.80
2018-05-12T23:26:10.479Z,17.80
2018-05-12T23:28:39.221Z,17.70
2018-05-12T23:31:08.376Z,17.70
2018-05-12T23:36:11.566Z,17.60
2018-05-12T23:38:43.394Z,17.60
2018-05-12T23:41:11.897Z,17.50
2018-05-12T23:43:40.941Z,17.40
2018-05-12T23:46:09.144Z,17.40
2018-05-12T23:48:37.366Z,17.40
2018-05-12T23:51:05.592Z,17.40
2018-05-12T23:53:33.805Z,17.40
2018-05-12T23:56:02.869Z,17.30
2018-05-12T23:58:31.080Z,17.30
